Time;durP1;ratioP1;P1;durP2;ratioP2;P2;SDS_P1;SDS_P2;PMS_P1;PMS_P2;Temp;Humidity;BMP_temperature;BMP_pressure;BME280_temperature;BME280_humidity;BME280_pressure;Samples;Min_cycle;Max_cycle;Signal;HPM_P1;HPM_P2
2022/01/30 00:00:23;;;;;;;;;4.75;4.75;;;;;11.38;75.72;102933.78;5012289;28;45487;-63
2022/01/30 00:02:51;;;;;;;;;8.50;7.50;;;;;11.39;75.87;102935.50;5010764;28;45545;-64
2022/01/30 00:05:18;;;;;;;;;6.50;6.00;;;;;11.41;75.52;102934.56;5012677;28;45663;-62
2022/01/30 00:07:44;;;;;;;;;6.50;5.00;;;;;11.42;75.94;102927.50;5011381;28;45427;-62
2022/01/30 00:10:12;;;;;;;;;7.00;5.00;;;;;11.38;75.99;102918.81;5013613;28;45526;-64
2022/01/30 00:13:01;;;;;;;;;6.50;4.25;;;;;11.36;75.63;102928.53;5012682;28;45384;-61
2022/01/30 00:15:36;;;;;;;;;5.25;4.50;;;;;11.35;75.92;102925.94;5013112;28;45396;-67
2022/01/30 00:18:29;;;;;;;;;4.50;4.00;;;;;11.33;76.04;102930.41;5009630;28;45591;-64
2022/01/30 00:21:31;;;;;;;;;5.50;5.50;;;;;11.35;76.11;102925.94;5016047;28;45477;-62
2022/01/30 00:23:49;;;;;;;;;7.25;5.00;;;;;11.36;76.15;102925.03;5012470;28;45652;-63
2022/01/30 00:26:17;;;;;;;;;5.00;5.00;;;;;11.35;76.36;102923.28;5013250;28;47155;-63
2022/01/30 00:28:43;;;;;;;;;4.25;4.25;;;;;11.35;75.99;102921.53;5014892;28;45419;-65
2022/01/30 00:31:09;;;;;;;;;5.00;5.00;;;;;11.36;76.12;102920.63;5012847;28;45536;-64
2022/01/30 00:33:34;;;;;;;;;5.00;4.00;;;;;11.37;76.21;102913.56;5010604;28;45714;-61
2022/01/30 00:36:00;;;;;;;;;7.50;7.50;;;;;11.37;76.24;102924.97;5009062;28;45768;-64
2022/01/30 00:38:27;;;;;;;;;8.25;5.00;;;;;11.36;76.15;102917.97;5012146;28;45549;-61
2022/01/30 00:40:53;;;;;;;;;5.00;5.00;;;;;11.35;76.08;102912.75;5010305;28;45514;-60
2022/01/30 00:43:19;;;;;;;;;7.50;4.25;;;;;11.33;76.25;102907.50;5011701;28;45417;-63
2022/01/30 00:45:48;;;;;;;;;5.75;2.75;;;;;11.32;76.24;102910.19;5006993;28;45434;-63
2022/01/30 00:48:14;;;;;;;;;8.50;6.50;;;;;11.32;76.29;102903.16;5007833;28;45512;-66
2022/01/30 00:50:40;;;;;;;;;9.00;7.00;;;;;11.35;76.24;102903.06;5009185;28;45451;-62
2022/01/30 00:53:06;;;;;;;;;8.75;5.50;;;;;11.36;76.24;102909.19;5012928;28;45732;-60
2022/01/30 00:55:32;;;;;;;;;8.00;6.00;;;;;11.35;76.11;102913.59;5015099;28;47041;-61
2022/01/30 00:57:59;;;;;;;;;6.25;5.00;;;;;11.34;76.28;102901.31;5009759;28;45581;-66
2022/01/30 01:00:25;;;;;;;;;4.75;4.25;;;;;11.35;76.02;102899.56;5010506;28;45507;-60
2022/01/30 01:02:52;;;;;;;;;6.00;5.00;;;;;11.34;75.95;102887.28;5011480;28;45492;-60
2022/01/30 01:05:18;;;;;;;;;9.25;5.00;;;;;11.34;76.42;102892.53;5010840;28;46620;-62
2022/01/30 01:07:47;;;;;;;;;8.00;7.00;;;;;11.31;76.11;102882.94;5009572;28;45470;-64
2022/01/30 01:10:25;;;;;;;;;5.75;4.75;;;;;11.29;76.37;102884.75;5009319;28;45478;-63
2022/01/30 01:23:37;;;;;;;;;5.50;4.75;;;;;11.16;76.56;102876.31;5009096;28;45685;-66
2022/01/30 01:26:02;;;;;;;;;7.75;5.50;;;;;11.16;76.44;102870.19;5011447;28;45533;-60
2022/01/30 01:28:28;;;;;;;;;8.00;5.50;;;;;11.17;76.42;102877.19;5010046;28;45473;-60
2022/01/30 01:30:54;;;;;;;;;8.75;6.00;;;;;11.21;76.58;102867.41;5009115;28;45377;-63
2022/01/30 01:33:21;;;;;;;;;9.25;7.00;;;;;11.22;76.56;102872.66;5010113;28;45567;-62
2022/01/30 01:35:48;;;;;;;;;7.75;4.75;;;;;11.24;76.31;102868.19;5010597;28;48210;-60
2022/01/30 01:38:15;;;;;;;;;7.25;7.25;;;;;11.27;76.17;102875.16;5007658;28;45700;-64
2022/01/30 01:40:42;;;;;;;;;9.00;8.25;;;;;11.32;76.42;102870.63;5011454;28;45614;-62
2022/01/30 01:43:08;;;;;;;;;5.25;4.75;;;;;11.32;76.06;102887.31;5014273;28;45711;-66
2022/01/30 01:45:38;;;;;;;;;10.00;8.75;;;;;11.34;76.20;102874.06;5010732;28;46902;-62
2022/01/30 01:48:10;;;;;;;;;10.00;7.00;;;;;11.37;75.86;102873.97;5010792;28;45571;-62
2022/01/30 01:50:43;;;;;;;;;7.00;7.00;;;;;11.35;76.07;102871.38;5004735;28;45325;-66
2022/01/30 01:53:12;;;;;;;;;9.00;8.75;;;;;11.36;76.13;102882.81;5007800;28;45428;-64
2022/01/30 01:55:39;;;;;;;;;9.50;7.25;;;;;11.36;76.21;102878.38;5008741;28;45433;-68
2022/01/30 01:58:05;;;;;;;;;8.75;8.75;;;;;11.38;76.27;102875.72;5008546;28;45631;-60
2022/01/30 02:00:32;;;;;;;;;7.50;4.75;;;;;11.35;76.07;102879.31;5011363;28;45492;-60
2022/01/30 02:02:58;;;;;;;;;6.25;6.00;;;;;11.36;75.90;102891.59;5010009;28;45709;-67
2022/01/30 02:05:26;;;;;;;;;9.00;8.50;;;;;11.37;76.00;102880.13;5008923;28;45670;-64
2022/01/30 02:08:03;;;;;;;;;10.25;8.00;;;;;11.37;76.00;102882.75;5008374;28;45632;-65
2022/01/30 02:10:50;;;;;;;;;9.00;9.00;;;;;11.38;75.97;102876.59;5007755;28;45476;-64
2022/01/30 02:24:23;;;;;;;;;8.25;7.50;;;;;11.36;76.21;102873.13;5007694;28;45574;-65
2022/01/30 02:26:49;;;;;;;;;11.00;9.50;;;;;11.40;75.81;102873.91;5007057;28;45501;-63
2022/01/30 02:29:15;;;;;;;;;9.75;8.00;;;;;11.39;75.72;102870.41;5006471;28;45505;-64
2022/01/30 02:31:42;;;;;;;;;9.75;9.00;;;;;11.39;75.74;102866.91;5009783;28;45519;-62
2022/01/30 02:34:08;;;;;;;;;9.75;9.50;;;;;11.35;75.92;102866.09;5011964;28;45598;-62
2022/01/30 02:36:46;;;;;;;;;10.75;9.50;;;;;11.31;75.83;102861.84;5008768;28;46277;-65
2022/01/30 02:39:11;;;;;;;;;11.50;10.00;;;;;11.30;75.98;102869.81;5010601;28;45404;-62
2022/01/30 02:41:38;;;;;;;;;18.25;10.75;;;;;11.29;75.79;102874.19;5009181;28;45449;-64
2022/01/30 02:44:13;;;;;;;;;13.00;10.25;;;;;11.27;75.95;102868.09;5007812;28;45920;-63
2022/01/30 02:46:43;;;;;;;;;12.75;11.00;;;;;11.26;75.94;102854.97;5007901;28;45763;-67
2022/01/30 02:51:52;;;;;;;;;13.00;12.50;;;;;11.26;75.83;102883.97;5006876;28;45842;-68
2022/01/30 02:54:19;;;;;;;;;15.25;10.50;;;;;11.26;75.95;102876.94;5007469;28;45497;-68
2022/01/30 02:56:44;;;;;;;;;11.00;10.50;;;;;11.27;76.11;102876.00;5007971;28;45718;-68
2022/01/30 02:59:11;;;;;;;;;13.00;10.25;;;;;11.28;75.77;102875.09;5006468;28;45379;-68
2022/01/30 03:01:37;;;;;;;;;12.00;9.50;;;;;11.30;75.93;102885.66;5005915;28;45405;-68
2022/01/30 03:04:02;;;;;;;;;11.00;7.00;;;;;11.29;75.67;102879.47;5006351;28;45477;-68
2022/01/30 03:06:28;;;;;;;;;9.50;9.50;;;;;11.28;75.59;102884.78;5007361;28;45451;-68
2022/01/30 03:08:53;;;;;;;;;9.00;8.75;;;;;11.28;75.53;102876.88;5008551;28;45820;-68
2022/01/30 03:11:21;;;;;;;;;21.75;11.00;;;;;11.27;75.34;102870.75;5009658;28;45378;-68
2022/01/30 03:13:47;;;;;;;;;14.75;12.50;;;;;11.28;75.72;102884.78;5009169;28;45731;-68
2022/01/30 03:16:13;;;;;;;;;10.00;9.25;;;;;11.30;75.65;102885.66;5009148;28;46092;-68
2022/01/30 03:18:40;;;;;;;;;14.75;11.00;;;;;11.30;75.39;102881.22;5009244;28;45477;-68
2022/01/30 03:21:07;;;;;;;;;10.25;9.00;;;;;11.29;75.55;102881.25;5007705;28;45505;-68
2022/01/30 03:23:37;;;;;;;;;15.50;13.50;;;;;11.29;75.34;102886.53;5010724;28;45490;-68
2022/01/30 03:26:03;;;;;;;;;0.75;0.00;;;;;11.32;75.35;102887.31;5012332;28;47137;-67
2022/01/30 03:28:30;;;;;;;;;13.75;10.75;;;;;11.33;75.12;102891.69;5010481;28;45567;-67
2022/01/30 03:30:59;;;;;;;;;15.50;12.25;;;;;11.32;75.12;102887.31;5012738;28;45624;-67
2022/01/30 03:33:25;;;;;;;;;15.25;10.50;;;;;11.32;75.13;102886.47;5011375;28;45675;-68
2022/01/30 03:35:51;;;;;;;;;16.00;13.00;;;;;11.35;74.82;102897.78;5010447;28;45547;-67
2022/01/30 03:38:16;;;;;;;;;16.25;10.75;;;;;11.33;74.41;102891.69;5009762;28;45397;-67
2022/01/30 03:40:44;;;;;;;;;5.50;4.00;;;;;11.32;72.74;102892.59;5013299;28;45737;-67
2022/01/30 03:43:10;;;;;;;;;10.00;4.00;;;;;11.29;71.12;102891.78;5012757;28;45766;-68
2022/01/30 03:45:36;;;;;;;;;14.25;12.75;;;;;11.28;70.60;102884.78;5010578;28;45986;-68
2022/01/30 03:48:03;;;;;;;;;9.75;4.00;;;;;11.26;70.56;102887.47;5012048;28;45516;-67
2022/01/30 03:50:29;;;;;;;;;4.50;2.00;;;;;11.25;67.94;102882.25;5013936;28;45552;-67
2022/01/30 03:52:54;;;;;;;;;3.00;2.00;;;;;11.17;67.90;102880.69;5012342;28;45372;-67
2022/01/30 03:55:21;;;;;;;;;4.00;2.00;;;;;11.17;67.26;102880.69;5011539;28;45426;-67
2022/01/30 03:57:46;;;;;;;;;5.50;2.25;;;;;11.16;66.87;102886.00;5010235;28;45428;-67
2022/01/30 04:00:13;;;;;;;;;3.25;3.00;;;;;11.14;66.32;102887.84;5010795;28;45828;-67
2022/01/30 04:02:38;;;;;;;;;0.00;0.00;;;;;11.12;65.84;102895.75;5011914;28;45424;-67
2022/01/30 04:05:04;;;;;;;;;4.00;3.00;;;;;11.12;65.46;102889.63;5012322;28;46034;-67
2022/01/30 04:07:33;;;;;;;;;3.25;2.00;;;;;11.08;64.98;102891.50;5010905;28;45379;-67
2022/01/30 04:09:59;;;;;;;;;1.50;1.50;;;;;11.03;64.81;102893.38;5011000;28;45507;-67
2022/01/30 04:12:25;;;;;;;;;4.00;1.50;;;;;11.02;65.23;102902.19;5009810;28;45381;-67
2022/01/30 04:14:51;;;;;;;;;3.75;2.00;;;;;11.06;64.96;102900.34;5009187;28;45466;-67
2022/01/30 04:17:18;;;;;;;;;6.50;1.00;;;;;11.03;64.94;102898.66;5009020;28;45435;-67
2022/01/30 04:19:44;;;;;;;;;2.00;2.00;;;;;11.02;64.78;102902.19;5009535;28;45337;-68
2022/01/30 04:22:10;;;;;;;;;3.50;1.00;;;;;11.02;64.73;102907.47;5011121;28;45487;-68
2022/01/30 04:24:36;;;;;;;;;3.50;2.00;;;;;11.02;64.37;102903.97;5010808;28;46262;-68
2022/01/30 04:27:01;;;;;;;;;1.75;0.00;;;;;11.02;64.37;102904.84;5012214;28;45566;-68
2022/01/30 04:29:27;;;;;;;;;5.50;1.50;;;;;11.06;63.87;102897.69;5010075;28;45582;-67
2022/01/30 04:31:53;;;;;;;;;3.00;1.00;;;;;11.02;63.91;102909.25;5010901;28;45557;-68
2022/01/30 04:34:19;;;;;;;;;1.50;1.25;;;;;11.01;63.18;102902.25;5012383;28;45965;-68
2022/01/30 04:37:03;;;;;;;;;1.75;1.25;;;;;10.97;63.11;102898.81;5010093;28;45510;-68
2022/01/30 04:53:15;;;;;;;;;7.00;2.00;;;;;10.88;62.60;102920.16;5008710;28;45376;-67
2022/01/30 05:01:14;;;;;;;;;3.75;1.25;;;;;10.91;62.58;102922.72;5028468;28;45428;-68
2022/01/30 05:04:00;;;;;;;;;2.00;1.00;;;;;10.91;62.56;102917.44;5011812;28;45413;-67
2022/01/30 05:06:55;;;;;;;;;4.00;1.00;;;;;10.92;62.72;102924.44;5011043;28;45397;-68
2022/01/30 05:09:20;;;;;;;;;3.25;0.50;;;;;10.89;62.10;102911.31;5012715;28;45653;-67
2022/01/30 05:11:46;;;;;;;;;10.75;2.00;;;;;10.87;62.31;102928.97;5010267;28;45314;-68
2022/01/30 05:14:13;;;;;;;;;2.00;2.00;;;;;10.87;62.56;102931.59;5010965;28;45342;-68
2022/01/30 05:16:39;;;;;;;;;2.50;1.00;;;;;10.84;61.94;102924.66;5009002;28;46518;-68
2022/01/30 05:19:05;;;;;;;;;2.75;1.00;;;;;10.78;61.99;102926.56;5008601;28;45509;-68
2022/01/30 05:21:31;;;;;;;;;4.50;1.00;;;;;10.76;61.74;102929.25;5008259;28;45477;-68
2022/01/30 05:23:57;;;;;;;;;3.75;2.00;;;;;10.74;62.40;102924.91;5008299;28;45395;-67
2022/01/30 05:26:25;;;;;;;;;4.25;2.00;;;;;10.74;62.01;102930.16;5008578;28;45514;-68
2022/01/30 05:28:52;;;;;;;;;3.00;1.50;;;;;10.75;62.13;102938.06;5008770;28;45425;-67
2022/01/30 05:31:17;;;;;;;;;5.00;2.00;;;;;10.77;62.48;102940.66;5011653;28;45494;-67
2022/01/30 05:33:44;;;;;;;;;4.00;2.00;;;;;10.78;62.41;102945.88;5010958;28;45464;-67
2022/01/30 05:36:10;;;;;;;;;8.25;2.00;;;;;10.79;61.91;102937.06;5008430;28;46532;-67
2022/01/30 05:38:36;;;;;;;;;3.00;2.00;;;;;10.80;62.43;102940.56;5009108;28;45525;-68
2022/01/30 05:41:02;;;;;;;;;1.75;0.00;;;;;10.81;62.14;102942.28;5012170;28;46501;-68
2022/01/30 05:43:30;;;;;;;;;2.75;1.50;;;;;10.81;62.12;102945.78;5010130;28;45552;-68
2022/01/30 05:46:08;;;;;;;;;5.00;1.75;;;;;10.80;62.20;102951.13;5009622;28;45453;-68
2022/01/30 05:48:34;;;;;;;;;3.50;2.00;;;;;10.75;61.73;102945.97;5010259;28;45451;-68
2022/01/30 05:51:00;;;;;;;;;4.25;1.50;;;;;10.73;61.90;102950.41;5010093;28;45522;-67
2022/01/30 05:53:26;;;;;;;;;3.00;2.00;;;;;10.70;62.04;102947.84;5017302;28;45725;-67
2022/01/30 05:55:51;;;;;;;;;3.25;1.00;;;;;10.68;61.76;102956.72;5006268;28;46114;-67
2022/01/30 05:58:17;;;;;;;;;2.00;1.00;;;;;10.66;61.86;102954.09;5008849;28;45472;-67
2022/01/30 06:00:42;;;;;;;;;2.50;1.75;;;;;10.67;62.08;102949.72;5008314;28;45631;-68
2022/01/30 06:03:08;;;;;;;;;4.00;1.00;;;;;10.63;61.62;102957.66;5008435;28;45700;-67
2022/01/30 06:05:33;;;;;;;;;6.50;1.00;;;;;10.62;61.40;102961.22;5011586;28;46024;-67
2022/01/30 06:08:09;;;;;;;;;6.00;2.25;;;;;10.59;61.35;102961.28;5009509;28;45503;-68
2022/01/30 06:10:34;;;;;;;;;4.75;2.00;;;;;10.55;61.59;102956.97;5007083;28;45501;-67
2022/01/30 06:13:00;;;;;;;;;3.00;2.00;;;;;10.51;61.53;102957.97;5009047;28;45724;-67
2022/01/30 06:15:25;;;;;;;;;10.75;2.00;;;;;10.50;61.77;102960.63;5007906;28;45365;-68
2022/01/30 06:17:51;;;;;;;;;7.50;1.50;;;;;10.49;61.46;102967.66;5009919;28;45671;-67
2022/01/30 06:20:17;;;;;;;;;4.25;1.25;;;;;10.50;61.54;102971.16;5011228;28;45405;-67
2022/01/30 06:22:42;;;;;;;;;1.50;1.50;;;;;10.49;61.11;102975.56;5008350;28;45437;-68
2022/01/30 06:25:09;;;;;;;;;4.25;2.00;;;;;10.48;61.06;102973.84;5011254;28;46067;-68
2022/01/30 06:27:35;;;;;;;;;5.25;2.00;;;;;10.45;60.80;102981.81;5008196;28;45437;-67
2022/01/30 06:30:01;;;;;;;;;3.50;2.00;;;;;10.43;60.88;102975.72;5009595;28;46624;-67
2022/01/30 06:32:27;;;;;;;;;1.00;1.00;;;;;10.42;61.07;102979.25;5009387;28;45577;-67
2022/01/30 06:34:52;;;;;;;;;4.50;2.00;;;;;10.41;60.92;102985.41;5010244;28;46079;-68
2022/01/30 06:37:18;;;;;;;;;3.50;2.00;;;;;10.39;61.38;102975.81;5008172;28;45801;-68
2022/01/30 06:39:43;;;;;;;;;4.00;3.75;;;;;10.37;61.13;102972.38;5009807;28;45604;-67
2022/01/30 06:42:09;;;;;;;;;2.50;2.25;;;;;10.37;61.19;102972.38;5011328;28;45589;-68
2022/01/30 06:44:35;;;;;;;;;5.00;1.00;;;;;10.34;61.17;102968.88;5010853;28;45595;-68
2022/01/30 06:47:01;;;;;;;;;3.50;1.00;;;;;10.29;60.81;102972.53;5008428;28;45568;-68
2022/01/30 06:49:26;;;;;;;;;1.25;1.25;;;;;10.20;60.74;102981.47;5009532;28;45637;-68
2022/01/30 06:51:51;;;;;;;;;3.50;1.25;;;;;10.15;61.27;102982.47;5007695;28;45559;-68
2022/01/30 06:54:17;;;;;;;;;4.50;2.00;;;;;10.10;61.69;102987.81;5005909;28;45882;-67
2022/01/30 06:56:42;;;;;;;;;11.25;3.75;;;;;10.04;61.05;102980.94;5006939;28;45385;-68
2022/01/30 06:59:08;;;;;;;;;3.25;1.75;;;;;9.93;61.58;102975.00;5005783;28;45357;-68
2022/01/30 07:01:33;;;;;;;;;2.25;2.25;;;;;9.86;61.99;102977.81;5008560;28;45364;-68
2022/01/30 07:03:59;;;;;;;;;5.50;2.00;;;;;9.81;61.25;102980.53;5008924;28;46025;-68
2022/01/30 07:06:24;;;;;;;;;8.00;2.00;;;;;9.75;62.25;102984.16;5008712;28;45491;-68
2022/01/30 07:08:50;;;;;;;;;3.00;1.00;;;;;9.71;62.00;102984.25;5010722;28;45450;-69
2022/01/30 07:11:16;;;;;;;;;6.00;2.75;;;;;9.68;62.26;102985.16;5008027;28;45459;-67
2022/01/30 07:13:42;;;;;;;;;7.00;2.50;;;;;9.63;62.33;102989.66;5007406;28;45543;-67
2022/01/30 07:16:08;;;;;;;;;5.75;2.00;;;;;9.58;61.86;102986.25;5007058;28;45496;-67
2022/01/30 07:18:33;;;;;;;;;2.00;2.00;;;;;9.53;61.91;102988.09;5004842;28;45691;-67
2022/01/30 07:20:59;;;;;;;;;4.00;2.00;;;;;9.46;62.19;102995.22;5007301;28;45535;-67
2022/01/30 07:23:25;;;;;;;;;6.00;3.00;;;;;9.40;62.28;102994.47;5006074;28;46021;-68
2022/01/30 07:25:51;;;;;;;;;8.50;3.00;;;;;9.37;62.65;103005.06;5007840;28;45376;-67
2022/01/30 07:28:16;;;;;;;;;5.25;3.00;;;;;9.33;62.47;103006.91;5008619;28;45363;-67
2022/01/30 07:30:42;;;;;;;;;7.75;2.75;;;;;9.33;63.13;103016.56;5006938;28;45722;-67
2022/01/30 07:33:07;;;;;;;;;7.00;2.50;;;;;9.28;62.49;103016.63;5010544;28;46615;-67
2022/01/30 07:35:36;;;;;;;;;6.00;1.25;;;;;9.25;62.65;103021.94;5007784;28;45387;-67
2022/01/30 07:38:02;;;;;;;;;9.25;3.00;;;;;9.22;63.10;103022.84;5007690;28;45587;-66
2022/01/30 07:40:28;;;;;;;;;4.25;2.25;;;;;9.21;62.83;103022.88;5009057;28;45554;-66
2022/01/30 07:42:54;;;;;;;;;2.25;1.00;;;;;9.20;62.80;103031.66;5011163;28;46092;-66
2022/01/30 07:45:19;;;;;;;;;6.00;2.00;;;;;9.19;63.04;103037.81;5008223;28;45512;-67
2022/01/30 07:47:45;;;;;;;;;6.00;2.00;;;;;9.20;63.07;103039.53;5009080;28;45451;-66
2022/01/30 07:50:10;;;;;;;;;4.50;2.00;;;;;9.20;63.21;103039.53;5007701;28;45499;-66
2022/01/30 07:52:36;;;;;;;;;4.25;2.25;;;;;9.20;63.17;103029.91;5005700;28;45587;-67
2022/01/30 07:55:01;;;;;;;;;6.50;2.25;;;;;9.21;62.82;103038.66;5007091;28;45479;-66
2022/01/30 07:57:27;;;;;;;;;6.75;2.25;;;;;9.21;63.13;103029.00;5010486;28;45536;-67
2022/01/30 07:59:52;;;;;;;;;4.00;2.75;;;;;9.20;63.40;103045.66;5007766;28;45321;-67
2022/01/30 08:02:18;;;;;;;;;4.25;2.00;;;;;9.21;63.66;103043.91;5005810;28;45464;-67
2022/01/30 08:04:44;;;;;;;;;5.50;2.50;;;;;9.20;63.61;103050.94;5006848;28;45402;-68
2022/01/30 08:07:09;;;;;;;;;3.00;2.00;;;;;9.21;63.50;103046.53;5003950;28;45401;-68
2022/01/30 08:09:35;;;;;;;;;7.75;3.75;;;;;9.22;63.13;103049.13;5008099;28;45764;-67
2022/01/30 08:12:00;;;;;;;;;5.00;3.25;;;;;9.23;62.95;103050.88;5009630;28;46153;-67
2022/01/30 08:14:26;;;;;;;;;3.50;3.00;;;;;9.27;63.16;103061.34;5010394;28;45432;-67
2022/01/30 08:16:51;;;;;;;;;6.75;2.75;;;;;9.27;63.09;103056.09;5013335;28;45474;-67
2022/01/30 08:19:19;;;;;;;;;5.50;3.00;;;;;9.28;62.89;103050.81;5011630;28;45508;-68
2022/01/30 08:21:45;;;;;;;;;6.25;3.00;;;;;9.29;62.56;103055.16;5008992;28;45326;-68
2022/01/30 08:24:10;;;;;;;;;3.25;3.00;;;;;9.29;62.87;103056.94;5014424;28;45411;-69
2022/01/30 08:26:36;;;;;;;;;7.25;3.25;;;;;9.31;62.36;103048.09;5009427;28;45336;-70
2022/01/30 08:29:01;;;;;;;;;3.75;2.00;;;;;9.35;63.08;103047.19;5009827;28;45540;-69
2022/01/30 08:31:27;;;;;;;;;7.50;3.50;;;;;9.40;62.61;103044.44;5010694;28;45436;-68
2022/01/30 08:33:52;;;;;;;;;8.00;2.25;;;;;9.45;62.38;103047.88;5012163;28;45340;-69
2022/01/30 08:36:18;;;;;;;;;3.75;3.00;;;;;9.47;62.78;103038.19;5009811;28;45544;-69
2022/01/30 08:38:43;;;;;;;;;10.50;6.00;;;;;9.49;62.58;103042.56;5011355;28;45664;-69
2022/01/30 08:41:09;;;;;;;;;4.00;2.00;;;;;9.52;62.39;103047.75;5019318;28;46026;-69
2022/01/30 08:43:36;;;;;;;;;6.00;3.25;;;;;9.56;62.60;103045.94;5000073;28;45475;-72
2022/01/30 08:46:02;;;;;;;;;8.25;3.00;;;;;9.60;62.62;103049.38;5006156;28;45509;-61
2022/01/30 08:48:30;;;;;;;;;6.00;1.50;;;;;9.64;61.88;103049.31;5012232;28;45630;-61
2022/01/30 08:50:56;;;;;;;;;3.75;1.75;;;;;9.64;61.13;103051.06;5011661;28;45446;-62
2022/01/30 08:53:21;;;;;;;;;4.50;2.25;;;;;9.67;61.46;103048.38;5018503;28;45434;-63
2022/01/30 08:55:47;;;;;;;;;4.50;2.00;;;;;9.69;60.73;103044.81;5015907;28;45566;-61
2022/01/30 08:58:13;;;;;;;;;7.25;2.25;;;;;9.71;61.07;103050.91;5009675;28;45442;-64
2022/01/30 09:00:43;;;;;;;;;5.00;2.00;;;;;9.75;60.76;103062.25;5011895;28;46133;-68
2022/01/30 09:03:09;;;;;;;;;3.00;3.00;;;;;9.77;60.51;103060.44;5014325;28;45479;-63
2022/01/30 09:05:35;;;;;;;;;3.00;1.25;;;;;9.77;60.56;103061.31;5013037;28;45210;-64
2022/01/30 09:08:05;;;;;;;;;3.25;2.00;;;;;9.79;60.34;103067.44;5007240;28;45497;-63
2022/01/30 09:10:32;;;;;;;;;8.00;3.75;;;;;9.78;60.23;103065.69;5008340;28;46332;-64
2022/01/30 09:12:58;;;;;;;;;2.00;2.00;;;;;9.81;59.97;103061.28;5011240;28;46592;-66
2022/01/30 09:15:24;;;;;;;;;6.25;2.00;;;;;9.87;60.64;103055.88;5013932;28;45536;-63
2022/01/30 09:17:51;;;;;;;;;6.00;3.00;;;;;9.90;60.28;103053.19;5002414;28;46837;-63
2022/01/30 09:20:17;;;;;;;;;8.50;3.50;;;;;9.93;60.54;103061.03;5004960;28;48146;-63
2022/01/30 09:22:43;;;;;;;;;6.75;3.00;;;;;9.92;60.36;103057.53;5010067;28;45475;-64
2022/01/30 09:25:09;;;;;;;;;7.25;3.00;;;;;9.93;60.49;103063.66;5007090;28;45411;-63
2022/01/30 09:27:35;;;;;;;;;5.75;3.50;;;;;9.94;60.30;103061.00;5008125;28;45412;-63
2022/01/30 09:30:01;;;;;;;;;3.50;3.50;;;;;9.97;59.79;103070.63;5008739;28;45494;-65
2022/01/30 09:32:26;;;;;;;;;3.00;3.00;;;;;9.97;59.92;103071.47;5014586;28;45509;-65
2022/01/30 09:34:52;;;;;;;;;3.75;3.00;;;;;10.01;59.82;103069.66;5006224;28;45519;-66
2022/01/30 09:37:17;;;;;;;;;6.00;2.75;;;;;10.05;59.71;103077.47;5013706;28;45360;-65
2022/01/30 09:39:44;;;;;;;;;9.00;3.00;;;;;10.06;59.12;103070.44;5012156;28;45324;-65
2022/01/30 09:42:10;;;;;;;;;5.75;3.25;;;;;10.03;59.29;103071.38;5009751;28;45451;-65
2022/01/30 09:44:40;;;;;;;;;8.25;4.00;;;;;10.05;59.54;103077.47;5011660;28;45323;-65
2022/01/30 09:47:13;;;;;;;;;5.50;3.00;;;;;10.06;59.37;103075.69;5010399;28;45458;-65
2022/01/30 09:49:47;;;;;;;;;4.75;2.25;;;;;10.11;59.62;103073.84;5008514;28;45473;-65
2022/01/30 09:52:12;;;;;;;;;4.25;1.75;;;;;10.15;58.95;103070.25;5010376;28;45628;-65
2022/01/30 09:54:38;;;;;;;;;6.00;2.75;;;;;10.17;59.21;103078.97;5006395;28;45403;-65
2022/01/30 09:57:04;;;;;;;;;3.25;3.00;;;;;10.19;58.77;103081.56;5010229;28;45240;-64
2022/01/30 09:59:29;;;;;;;;;3.75;2.25;;;;;10.21;58.42;103079.78;5007995;28;45512;-64
2022/01/30 10:01:55;;;;;;;;;2.00;2.00;;;;;10.26;58.57;103083.22;5012512;28;45495;-65
2022/01/30 10:04:20;;;;;;;;;6.75;2.00;;;;;10.28;58.26;103077.03;5010704;28;45344;-65
2022/01/30 10:06:51;;;;;;;;;10.75;2.00;;;;;10.33;58.18;103077.78;5011486;28;45584;-65
2022/01/30 10:09:26;;;;;;;;;3.00;2.00;;;;;10.37;58.51;103077.75;5003341;28;46166;-65
2022/01/30 10:12:01;;;;;;;;;7.25;2.50;;;;;10.38;58.24;103082.97;5014962;28;45433;-66
2022/01/30 10:14:27;;;;;;;;;5.50;2.00;;;;;10.41;58.85;103077.63;5007942;28;45368;-65
2022/01/30 10:16:53;;;;;;;;;7.50;2.00;;;;;10.47;57.82;103074.00;5016100;28;45562;-65
2022/01/30 10:19:20;;;;;;;;;5.00;2.25;;;;;10.51;58.00;103075.69;5013611;28;46124;-65
2022/01/30 10:22:06;;;;;;;;;12.00;4.00;;;;;10.53;57.93;103071.25;5013573;28;45479;-65
2022/01/30 10:24:37;;;;;;;;;8.25;3.50;;;;;10.56;58.20;103076.44;5011299;28;45413;-65
2022/01/30 10:27:23;;;;;;;;;3.00;2.00;;;;;10.53;58.05;103076.53;5022270;28;45246;-65
2022/01/30 10:30:19;;;;;;;;;4.00;4.00;;;;;10.54;57.93;103078.25;5005575;28;45562;-66
2022/01/30 10:32:55;;;;;;;;;8.00;4.00;;;;;10.54;57.47;103075.63;5002851;28;45530;-66
2022/01/30 10:35:20;;;;;;;;;6.75;4.00;;;;;10.49;57.58;103072.19;5017963;28;45349;-65
2022/01/30 10:37:46;;;;;;;;;8.50;2.00;;;;;10.49;57.71;103075.69;5015544;28;45574;-66
2022/01/30 10:40:28;;;;;;;;;9.00;3.00;;;;;10.49;57.60;103072.19;5017500;28;45372;-66
2022/01/30 10:42:54;;;;;;;;;2.00;2.00;;;;;10.50;57.70;103073.94;5013746;28;45309;-66
2022/01/30 10:45:30;;;;;;;;;4.75;3.00;;;;;10.55;57.66;103070.31;5008398;28;45384;-66
2022/01/30 10:48:16;;;;;;;;;7.50;3.25;;;;;10.54;56.96;103067.72;5010774;28;45260;-65
2022/01/30 10:50:44;;;;;;;;;6.25;3.25;;;;;10.57;57.36;103057.94;5030518;28;46121;-66
2022/01/30 10:53:22;;;;;;;;;7.00;2.75;;;;;10.61;56.53;103071.94;5020214;28;45428;-65
2022/01/30 10:55:48;;;;;;;;;5.50;3.00;;;;;10.63;56.99;103063.09;5015548;28;45387;-67
2022/01/30 10:58:17;;;;;;;;;1.00;1.00;;;;;10.62;56.69;103066.63;5007946;28;45411;-61
2022/01/30 11:00:49;;;;;;;;;3.50;2.50;;;;;10.59;56.88;103068.50;5007592;28;45508;-64
2022/01/30 11:03:35;;;;;;;;;20.00;12.75;;;;;10.57;56.79;103071.13;5017339;28;45506;-64
2022/01/30 11:06:01;;;;;;;;;8.50;6.50;;;;;10.49;57.05;103067.78;5006829;28;45478;-64
2022/01/30 11:08:30;;;;;;;;;6.00;4.00;;;;;10.50;56.63;103061.63;5019099;28;45768;-64
2022/01/30 11:14:01;;;;;;;;;7.75;3.00;;;;;10.62;56.96;103061.38;5019118;28;45510;-63
2022/01/30 11:19:15;;;;;;;;;5.50;2.25;;;;;10.72;56.56;103054.09;5020561;28;45308;-63
2022/01/30 11:21:41;;;;;;;;;6.75;3.75;;;;;10.76;56.19;103049.66;5027906;28;45548;-63
2022/01/30 11:24:09;;;;;;;;;4.00;4.00;;;;;10.81;56.72;103050.41;5031551;28;45313;-63
2022/01/30 11:26:35;;;;;;;;;6.50;3.25;;;;;10.88;56.56;103041.44;5000474;28;45429;-64
2022/01/30 11:29:01;;;;;;;;;5.00;4.25;;;;;11.02;56.92;103051.66;5006760;28;45554;-63
2022/01/30 11:31:27;;;;;;;;;8.50;4.25;;;;;11.12;56.36;103048.75;5014845;28;46251;-64
2022/01/30 11:33:54;;;;;;;;;7.25;3.00;;;;;11.26;55.93;103032.59;5011516;28;45226;-62
2022/01/30 11:36:23;;;;;;;;;4.50;3.00;;;;;11.42;56.07;103033.94;5018481;28;45655;-62
2022/01/30 11:38:49;;;;;;;;;5.00;4.00;;;;;11.57;55.66;103032.66;5018988;28;45534;-62
2022/01/30 11:41:17;;;;;;;;;9.50;4.00;;;;;11.63;55.48;103026.34;5006302;28;45333;-62
2022/01/30 11:44:17;;;;;;;;;9.75;3.50;;;;;11.67;55.33;103030.63;5017689;28;45342;-62
2022/01/30 11:46:43;;;;;;;;;4.00;2.75;;;;;11.73;55.03;103020.78;5011605;28;45483;-62
2022/01/30 11:49:13;;;;;;;;;8.50;5.00;;;;;11.77;54.92;103012.75;5016616;28;45372;-67
2022/01/30 11:51:53;;;;;;;;;5.00;3.00;;;;;11.77;54.62;103020.69;5019447;28;46368;-63
2022/01/30 11:54:48;;;;;;;;;7.50;5.00;;;;;11.78;54.26;103010.09;5009667;28;45459;-63
2022/01/30 11:57:19;;;;;;;;;8.25;4.00;;;;;11.80;54.30;103008.31;5010706;28;45338;-64
2022/01/30 11:59:46;;;;;;;;;4.00;3.00;;;;;11.82;53.88;103002.97;5009534;28;45274;-63
2022/01/30 12:02:48;;;;;;;;;8.25;4.00;;;;;11.84;54.00;103003.78;5012731;28;45355;-62
2022/01/30 12:05:13;;;;;;;;;6.50;4.00;;;;;11.91;53.90;103002.72;5003092;28;45502;-62
2022/01/30 12:07:47;;;;;;;;;7.50;3.00;;;;;11.89;53.65;102994.84;5016507;28;45442;-62
2022/01/30 12:10:15;;;;;;;;;3.00;2.00;;;;;11.95;53.79;102996.44;5021886;28;45630;-61
2022/01/30 12:12:55;;;;;;;;;4.00;3.00;;;;;12.07;53.53;102988.16;5009179;28;45437;-63
2022/01/30 12:15:40;;;;;;;;;11.00;5.50;;;;;12.26;53.59;102989.34;5010544;28;45223;-64
2022/01/30 12:18:10;;;;;;;;;3.25;3.25;;;;;12.33;53.12;102982.09;5003314;28;45283;-61